Time;durP1;ratioP1;P1;durP2;ratioP2;P2;SDS_P1;SDS_P2;PMS_P1;PMS_P2;Temp;Humidity;BMP_temperature;BMP_pressure;BME280_temperature;BME280_humidity;BME280_pressure;Samples;Min_cycle;Max_cycle;Signal;HPM_P1;HPM_P2
2023/03/25 00:01:14;;;;;;;0.43;0.43;;;;;;;18.56;47.03;98973.75;5304800;26;33146;-81
2023/03/25 00:03:49;;;;;;;4.07;1.35;;;;;;;18.25;47.34;98981.84;5323525;26;34243;-80
2023/03/25 00:06:18;;;;;;;0.30;0.30;;;;;;;18.29;47.12;98980.59;5306156;26;33065;-81
2023/03/25 00:08:48;;;;;;;0.50;0.50;;;;;;;18.16;47.47;98978.13;5304920;26;33799;-81
2023/03/25 00:11:16;;;;;;;0.10;0.10;;;;;;;18.37;46.84;98982.56;5341975;26;33490;-81
2023/03/25 00:13:44;;;;;;;7.22;0.52;;;;;;;18.17;47.39;98977.16;5322089;26;33194;-82
2023/03/25 00:16:15;;;;;;;0.47;0.47;;;;;;;18.34;46.98;98978.34;5304958;26;33440;-81
2023/03/25 00:18:46;;;;;;;0.55;0.55;;;;;;;18.27;47.13;98987.03;5305256;26;33256;-81
2023/03/25 00:21:14;;;;;;;0.30;0.30;;;;;;;18.16;47.21;98986.16;5304393;26;35188;-81
2023/03/25 00:23:42;;;;;;;0.77;0.43;;;;;;;18.21;47.10;98991.09;5323580;26;33854;-81
2023/03/25 00:26:10;;;;;;;0.20;0.20;;;;;;;18.45;46.51;98982.72;5304825;26;32048;-81
2023/03/25 00:28:38;;;;;;;0.37;0.32;;;;;;;18.19;47.46;98990.41;5304587;26;32848;-81
2023/03/25 00:31:09;;;;;;;0.52;0.22;;;;;;;18.47;46.53;98985.25;5286335;26;32997;-82
2023/03/25 00:33:40;;;;;;;0.00;0.00;;;;;;;18.37;46.79;98985.22;5321700;26;32491;-80
2023/03/25 00:36:13;;;;;;;0.43;0.43;;;;;;;18.35;46.93;98979.19;5304726;26;31697;-81
2023/03/25 00:38:42;;;;;;;0.10;0.10;;;;;;;18.20;47.40;98985.91;5305329;26;33118;-81
2023/03/25 00:41:24;;;;;;;0.10;0.10;;;;;;;18.13;47.64;98989.09;5304947;26;34995;-81
2023/03/25 00:43:54;;;;;;;0.32;0.32;;;;;;;18.03;47.81;98985.53;5305978;26;33169;-81
2023/03/25 00:46:30;;;;;;;0.70;0.62;;;;;;;18.10;47.81;98984.03;5304809;26;32808;-83
2023/03/25 00:49:00;;;;;;;1.00;0.52;;;;;;;17.99;48.30;98989.44;5286188;26;32420;-81
2023/03/25 00:51:30;;;;;;;0.10;0.10;;;;;;;18.09;47.95;98987.69;5323244;26;33908;-81
2023/03/25 00:53:59;;;;;;;0.00;0.00;;;;;;;18.04;48.05;98989.91;5323539;26;34592;-81
2023/03/25 00:56:29;;;;;;;0.52;0.43;;;;;;;17.94;48.29;98993.50;5304061;26;32830;-81
2023/03/25 00:58:57;;;;;;;0.28;0.28;;;;;;;18.12;47.78;98992.75;5304030;26;32918;-81
2023/03/25 01:01:27;;;;;;;0.10;0.10;;;;;;;18.13;47.51;98989.09;5287046;26;32709;-81
2023/03/25 01:03:58;;;;;;;0.03;0.03;;;;;;;17.95;48.28;98988.03;5324752;26;33681;-80
2023/03/25 01:06:33;;;;;;;0.10;0.10;;;;;;;17.63;49.22;98983.62;5305398;26;33047;-81
2023/03/25 01:09:04;;;;;;;0.75;0.37;;;;;;;17.87;48.63;98994.03;5323588;26;33969;-81
2023/03/25 01:11:34;;;;;;;0.75;0.75;;;;;;;17.92;48.63;98996.31;5323908;26;34067;-81
2023/03/25 01:14:04;;;;;;;0.00;0.00;;;;;;;18.07;48.18;98992.31;5305813;26;33670;-82
2023/03/25 01:16:33;;;;;;;0.22;0.13;;;;;;;17.75;49.04;98997.75;5305487;26;32714;-81
2023/03/25 01:19:01;;;;;;;0.45;0.30;;;;;;;17.45;50.54;99006.53;5323848;26;33509;-81
2023/03/25 01:21:32;;;;;;;0.00;0.00;;;;;;;17.12;51.70;98997.72;5287594;26;32617;-81
2023/03/25 01:24:00;;;;;;;5.35;1.00;;;;;;;17.22;52.08;98991.62;5305520;26;33353;-82
2023/03/25 01:26:28;;;;;;;0.03;0.03;;;;;;;17.30;52.06;99005.16;5305964;26;31986;-82
2023/03/25 01:28:58;;;;;;;0.52;0.52;;;;;;;17.81;50.84;98999.09;5305627;26;33174;-82
2023/03/25 01:31:29;;;;;;;0.50;0.30;;;;;;;17.62;51.69;99011.31;5324531;26;34806;-82
2023/03/25 01:33:58;;;;;;;0.40;0.40;;;;;;;17.92;50.79;99015.84;5324250;26;34679;-82
2023/03/25 01:36:30;;;;;;;0.22;0.22;;;;;;;17.78;51.48;99005.50;5324282;26;33945;-81
2023/03/25 01:39:00;;;;;;;1.07;0.10;;;;;;;17.64;51.97;99014.66;5306333;26;32374;-82
2023/03/25 01:41:28;;;;;;;0.32;0.32;;;;;;;17.80;51.66;99016.06;5305588;26;33002;-80
2023/03/25 01:44:19;;;;;;;0.00;0.00;;;;;;;17.69;52.12;99013.44;5308620;26;32834;-81
2023/03/25 01:46:51;;;;;;;0.32;0.32;;;;;;;17.54;52.70;99013.78;5305850;26;32652;-81
2023/03/25 01:49:33;;;;;;;0.10;0.10;;;;;;;17.26;53.66;99028.59;5306124;26;33290;-83
2023/03/25 01:52:12;;;;;;;3.85;0.55;;;;;;;17.56;52.79;99019.81;5323895;26;33360;-81
2023/03/25 01:54:40;;;;;;;0.30;0.30;;;;;;;17.84;51.98;99022.81;5324307;26;33537;-81
2023/03/25 01:57:12;;;;;;;0.30;0.30;;;;;;;17.45;53.13;99027.88;5323112;26;33447;-81
2023/03/25 01:59:41;;;;;;;0.32;0.10;;;;;;;17.21;53.86;99016.59;5323987;26;34223;-80
2023/03/25 02:02:09;;;;;;;0.55;0.55;;;;;;;17.17;54.02;99025.84;5323476;26;33876;-81
2023/03/25 02:04:57;;;;;;;0.20;0.17;;;;;;;17.39;53.56;99031.94;5305379;26;34081;-81
2023/03/25 02:07:31;;;;;;;0.22;0.22;;;;;;;17.02;55.22;99031.47;5306019;26;32397;-80
2023/03/25 02:10:03;;;;;;;0.15;0.10;;;;;;;16.37;57.43;99035.81;5306047;26;33905;-80
2023/03/25 02:12:33;;;;;;;0.10;0.10;;;;;;;16.72;56.53;99032.16;5305926;26;33683;-81
2023/03/25 02:15:02;;;;;;;0.00;0.00;;;;;;;16.35;58.09;99018.25;5323593;26;33857;-80
2023/03/25 02:17:55;;;;;;;0.10;0.10;;;;;;;16.41;58.10;99027.56;5323380;26;33131;-80
2023/03/25 02:20:32;;;;;;;0.55;0.55;;;;;;;16.49;57.89;99026.00;5343700;26;33884;-82
2023/03/25 02:23:15;;;;;;;0.10;0.10;;;;;;;16.11;59.11;99039.69;5304954;26;32927;-81
2023/03/25 02:26:04;;;;;;;0.00;0.00;;;;;;;16.33;58.37;99025.50;5305499;26;33422;-80
2023/03/25 02:28:55;;;;;;;0.32;0.20;;;;;;;16.24;58.75;99020.94;5305139;26;33952;-81
2023/03/25 02:32:06;;;;;;;0.50;0.50;;;;;;;16.36;58.24;99020.78;5305015;26;32971;-81
2023/03/25 02:34:45;;;;;;;0.00;0.00;;;;;;;16.33;58.36;99017.53;5271974;26;33267;-80
2023/03/25 02:37:45;;;;;;;0.13;0.10;;;;;;;15.96;59.60;99017.78;5343672;26;34550;-81
2023/03/25 02:40:20;;;;;;;0.10;0.10;;;;;;;16.54;57.39;99002.47;5298520;26;33699;-80
2023/03/25 02:42:52;;;;;;;0.17;0.17;;;;;;;16.12;58.56;99001.44;5305689;26;32611;-81
2023/03/25 02:45:28;;;;;;;0.00;0.00;;;;;;;15.81;59.28;99006.53;5323463;26;33646;-81
2023/03/25 02:48:01;;;;;;;0.00;0.00;;;;;;;15.93;58.77;99012.69;5305354;26;33680;-80
2023/03/25 02:50:41;;;;;;;0.00;0.00;;;;;;;15.84;58.92;99002.75;5305802;26;32066;-81
2023/03/25 02:53:17;;;;;;;0.00;0.00;;;;;;;16.31;57.13;99007.00;5305212;26;33172;-80
2023/03/25 02:55:46;;;;;;;0.10;0.10;;;;;;;16.17;57.59;99009.06;5305491;26;33424;-80
2023/03/25 02:58:16;;;;;;;0.15;0.15;;;;;;;16.11;57.11;99011.25;5316087;26;33734;-80
2023/03/25 03:00:45;;;;;;;0.00;0.00;;;;;;;15.70;58.18;99016.28;5302991;26;33409;-80
2023/03/25 03:03:14;;;;;;;0.00;0.00;;;;;;;15.60;58.35;99016.97;5322542;26;33654;-80
2023/03/25 03:05:45;;;;;;;0.68;0.55;;;;;;;16.19;56.77;99017.78;5305137;26;32832;-80
2023/03/25 03:08:23;;;;;;;0.00;0.00;;;;;;;16.06;57.24;99009.91;5323750;26;34271;-81
2023/03/25 03:10:58;;;;;;;0.10;0.10;;;;;;;16.07;57.71;99009.78;5323632;26;33179;-82
2023/03/25 03:13:35;;;;;;;0.00;0.00;;;;;;;15.83;58.85;99011.72;5287097;26;33481;-82
2023/03/25 03:19:39;;;;;;;0.00;0.00;;;;;;;15.59;60.71;99027.72;5277167;26;33214;-81
2023/03/25 03:22:33;;;;;;;0.00;0.00;;;;;;;15.45;61.61;99031.44;5286753;26;32433;-82
2023/03/25 03:25:23;;;;;;;0.00;0.00;;;;;;;15.64;61.89;99035.41;5323407;26;34387;-83
2023/03/25 03:27:55;;;;;;;0.00;0.00;;;;;;;15.28;63.52;99031.88;5304698;26;33390;-82
2023/03/25 03:30:45;;;;;;;0.08;0.08;;;;;;;15.06;64.60;99029.97;5286946;26;32441;-83
2023/03/25 03:33:24;;;;;;;0.37;0.37;;;;;;;14.99;65.17;99036.69;5304798;26;32695;-82
2023/03/25 03:36:06;;;;;;;0.00;0.00;;;;;;;14.96;65.58;99037.78;5323971;26;34380;-82
2023/03/25 03:38:40;;;;;;;0.30;0.30;;;;;;;14.81;66.25;99038.88;5305354;26;33171;-82
2023/03/25 03:41:12;;;;;;;0.15;0.10;;;;;;;14.77;66.55;99048.06;5304682;26;33195;-82
2023/03/25 03:43:51;;;;;;;0.10;0.00;;;;;;;15.12;65.58;99042.81;5305191;26;33450;-81
2023/03/25 03:46:26;;;;;;;0.00;0.00;;;;;;;15.21;65.41;99050.09;5323650;26;34089;-82
2023/03/25 03:48:57;;;;;;;0.05;0.05;;;;;;;14.98;66.34;99051.81;5304680;26;33371;-82
2023/03/25 03:51:36;;;;;;;0.08;0.05;;;;;;;15.23;65.33;99057.97;5303914;26;33052;-84
2023/03/25 03:54:13;;;;;;;0.08;0.08;;;;;;;14.99;66.53;99058.81;5305093;26;33202;-82
2023/03/25 03:57:06;;;;;;;0.10;0.10;;;;;;;15.07;66.12;99061.75;5304927;26;32533;-82
2023/03/25 04:00:05;;;;;;;0.20;0.20;;;;;;;15.14;65.87;99056.81;5323225;26;33544;-83
2023/03/25 04:02:49;;;;;;;0.00;0.00;;;;;;;14.93;66.44;99077.88;5305486;26;33110;-83
2023/03/25 04:05:20;;;;;;;0.10;0.10;;;;;;;14.86;66.43;99079.31;5323298;26;34098;-81
2023/03/25 04:07:59;;;;;;;1.12;0.50;;;;;;;14.86;67.12;99073.97;5296732;26;32697;-81
2023/03/25 04:10:38;;;;;;;0.30;0.30;;;;;;;14.81;67.16;99081.41;5317606;26;33364;-81
2023/03/25 04:13:12;;;;;;;0.43;0.35;;;;;;;14.83;67.13;99082.16;5286942;26;32632;-81
2023/03/25 04:15:41;;;;;;;16.02;0.57;;;;;;;14.96;66.41;99080.31;5323218;26;34187;-81
2023/03/25 04:18:13;;;;;;;0.00;0.00;;;;;;;14.91;66.31;99082.47;5323416;26;32540;-81
2023/03/25 04:20:43;;;;;;;0.20;0.20;;;;;;;14.90;66.67;99088.72;5322882;26;33675;-81
2023/03/25 04:23:15;;;;;;;0.47;0.47;;;;;;;14.91;66.90;99087.78;5323125;26;34305;-81
2023/03/25 04:25:48;;;;;;;0.32;0.32;;;;;;;15.01;66.37;99088.81;5304219;26;32288;-81
2023/03/25 04:28:18;;;;;;;0.10;0.10;;;;;;;15.05;65.75;99084.97;5342911;26;34661;-81
2023/03/25 04:30:54;;;;;;;0.00;0.00;;;;;;;15.04;66.12;99082.41;5304279;26;33183;-81
2023/03/25 04:33:24;;;;;;;0.30;0.20;;;;;;;15.28;65.00;99085.91;5324073;26;33876;-81
2023/03/25 04:35:53;;;;;;;0.00;0.00;;;;;;;14.74;67.00;99093.47;5323925;26;32828;-81
2023/03/25 04:38:21;;;;;;;0.00;0.00;;;;;;;14.89;66.46;99094.16;5341907;26;33532;-82
2023/03/25 04:40:49;;;;;;;0.00;0.00;;;;;;;14.95;66.53;99099.88;5305922;26;32967;-81
2023/03/25 04:43:18;;;;;;;1.62;0.50;;;;;;;15.17;65.51;99103.63;5323553;26;32955;-81
2023/03/25 04:45:52;;;;;;;0.75;0.13;;;;;;;15.08;65.73;99107.81;5343605;26;33923;-81
2023/03/25 04:48:31;;;;;;;3.03;0.62;;;;;;;15.01;66.16;99104.75;5306387;26;32563;-82
2023/03/25 04:51:02;;;;;;;0.10;0.10;;;;;;;15.20;64.86;99112.22;5299386;26;32645;-81
2023/03/25 04:53:30;;;;;;;0.28;0.28;;;;;;;15.01;65.38;99118.06;5305070;26;33552;-81
2023/03/25 04:55:59;;;;;;;0.00;0.00;;;;;;;15.17;64.75;99125.75;5323782;26;33443;-81
2023/03/25 04:58:27;;;;;;;0.00;0.00;;;;;;;14.88;65.67;99127.88;5323643;26;33952;-81
2023/03/25 05:00:56;;;;;;;0.10;0.10;;;;;;;15.18;63.52;99121.28;5305871;26;33353;-81
2023/03/25 05:03:24;;;;;;;0.00;0.00;;;;;;;14.99;63.84;99121.75;5305334;26;32614;-80
2023/03/25 05:05:52;;;;;;;0.75;0.32;;;;;;;14.88;64.50;99127.88;5323661;26;33106;-81
2023/03/25 05:08:22;;;;;;;0.20;0.20;;;;;;;14.88;64.60;99129.69;5324493;26;34534;-80
2023/03/25 05:10:55;;;;;;;0.03;0.03;;;;;;;14.67;64.89;99142.69;5315607;26;33680;-81
2023/03/25 05:13:25;;;;;;;0.00;0.00;;;;;;;14.77;64.43;99143.75;5323572;26;33641;-81
2023/03/25 05:15:53;;;;;;;0.40;0.40;;;;;;;14.83;63.94;99143.31;5341615;26;33231;-80
2023/03/25 05:18:21;;;;;;;0.00;0.00;;;;;;;14.86;64.00;99143.09;5323582;26;33674;-81
2023/03/25 05:20:49;;;;;;;0.32;0.10;;;;;;;15.02;63.07;99142.81;5324078;26;34120;-81
2023/03/25 05:23:22;;;;;;;0.00;0.00;;;;;;;15.00;62.94;99150.03;5305395;26;33208;-80
2023/03/25 05:25:51;;;;;;;0.15;0.15;;;;;;;14.92;63.50;99147.13;5305729;26;32078;-80
2023/03/25 05:28:21;;;;;;;0.10;0.10;;;;;;;14.82;62.96;99152.25;5305241;26;34085;-81
2023/03/25 05:30:54;;;;;;;;;;;;;;;14.81;63.30;99155.81;5322400;26;33646;-81
2023/03/25 05:33:21;;;;;;;0.00;0.00;;;;;;;14.72;62.49;99148.53;5304689;26;33211;-81
2023/03/25 05:35:56;;;;;;;0.00;0.00;;;;;;;14.69;62.01;99143.44;5323341;26;33328;-81
2023/03/25 05:38:26;;;;;;;1.45;0.55;;;;;;;14.86;61.36;99145.75;5323650;26;33684;-80
2023/03/25 05:40:55;;;;;;;0.00;0.00;;;;;;;14.82;61.14;99141.59;5302531;26;33696;-80
2023/03/25 05:43:28;;;;;;;1.17;0.37;;;;;;;15.04;60.39;99141.72;5320642;26;32911;-80
2023/03/25 05:45:56;;;;;;;0.20;0.20;;;;;;;14.82;61.71;99142.44;5302883;26;31978;-80
2023/03/25 05:48:26;;;;;;;0.10;0.10;;;;;;;14.86;61.69;99148.41;5321595;26;33956;-79
2023/03/25 05:50:56;;;;;;;0.00;0.00;;;;;;;14.78;61.95;99148.94;5303280;26;32990;-79
2023/03/25 05:53:36;;;;;;;0.00;0.00;;;;;;;14.59;61.73;99148.56;5285710;26;33881;-79
2023/03/25 05:56:10;;;;;;;5.60;1.27;;;;;;;14.67;61.61;99148.88;5303392;26;33135;-79
2023/03/25 05:58:40;;;;;;;0.00;0.00;;;;;;;14.49;62.40;99152.81;5337958;26;34486;-79
2023/03/25 06:01:12;;;;;;;0.30;0.30;;;;;;;14.40;62.37;99156.94;5319959;26;33435;-79
2023/03/25 06:04:15;;;;;;;0.00;0.00;;;;;;;14.53;61.90;99162.28;5312150;26;35495;-79
2023/03/25 06:06:44;;;;;;;0.00;0.00;;;;;;;14.45;62.44;99170.72;5303516;26;33092;-79
2023/03/25 06:09:17;;;;;;;0.00;0.00;;;;;;;14.43;62.50;99169.13;5286471;26;33561;-79
2023/03/25 06:11:52;;;;;;;0.00;0.00;;;;;;;14.64;61.87;99169.47;5294522;26;33570;-81
2023/03/25 06:14:29;;;;;;;0.00;0.00;;;;;;;14.57;61.76;99171.69;5286567;26;33586;-79
2023/03/25 06:17:06;;;;;;;0.00;0.00;;;;;;;14.68;61.78;99170.97;5338907;26;34175;-78
2023/03/25 06:19:37;;;;;;;0.08;0.08;;;;;;;14.56;61.93;99167.34;5302624;26;33488;-79
2023/03/25 06:22:29;;;;;;;0.00;0.00;;;;;;;14.55;62.16;99163.84;5340609;26;35769;-79
2023/03/25 06:25:00;;;;;;;0.25;0.25;;;;;;;14.68;61.67;99165.66;5302632;26;33502;-79
2023/03/25 06:27:33;;;;;;;0.00;0.00;;;;;;;14.72;60.93;99167.12;5321413;26;34159;-79
2023/03/25 06:30:11;;;;;;;0.08;0.08;;;;;;;14.73;61.43;99167.03;5304172;26;33009;-79
2023/03/25 06:32:42;;;;;;;0.10;0.10;;;;;;;14.86;60.44;99169.66;5284992;26;34378;-78
2023/03/25 06:35:17;;;;;;;0.00;0.00;;;;;;;14.75;61.43;99174.88;5284362;26;33659;-79
2023/03/25 06:37:48;;;;;;;0.57;0.20;;;;;;;14.75;61.01;99174.88;5322482;26;32738;-78
2023/03/25 06:40:17;;;;;;;0.00;0.00;;;;;;;14.98;60.10;99182.06;5302266;26;33151;-79
2023/03/25 06:42:56;;;;;;;0.00;0.00;;;;;;;14.96;60.42;99175.19;5303198;26;34132;-81
2023/03/25 06:45:27;;;;;;;0.08;0.08;;;;;;;15.15;59.97;99178.22;5303024;26;34011;-79
2023/03/25 06:47:59;;;;;;;0.10;0.10;;;;;;;15.26;59.85;99182.75;5321389;26;34467;-80
2023/03/25 06:50:32;;;;;;;0.10;0.10;;;;;;;15.14;60.19;99178.28;5303355;26;32458;-80
2023/03/25 06:53:05;;;;;;;1.77;0.88;;;;;;;14.87;60.48;99183.81;5320817;26;34566;-80
2023/03/25 06:55:41;;;;;;;0.23;0.23;;;;;;;14.98;60.58;99184.72;5303733;26;33985;-80
2023/03/25 06:58:11;;;;;;;1.25;0.15;;;;;;;15.08;60.99;99177.78;5320860;26;33107;-80
2023/03/25 07:00:54;;;;;;;0.03;0.00;;;;;;;15.09;61.09;99179.47;5284368;26;33057;-81
2023/03/25 07:03:38;;;;;;;0.00;0.00;;;;;;;14.96;60.90;99197.28;5316541;26;34048;-80
2023/03/25 07:08:45;;;;;;;0.00;0.00;;;;;;;15.09;60.69;99176.81;5322328;26;32955;-80
2023/03/25 07:11:23;;;;;;;0.00;0.00;;;;;;;15.36;60.01;99183.75;5301437;26;33973;-82
2023/03/25 07:14:04;;;;;;;0.00;0.00;;;;;;;15.66;59.67;99186.00;5302382;26;33669;-81
2023/03/25 07:16:35;;;;;;;0.00;0.00;;;;;;;15.54;59.67;99198.38;5320070;26;32852;-81
2023/03/25 07:21:44;;;;;;;0.30;0.20;;;;;;;15.74;58.60;99204.06;5340674;26;34642;-81
2023/03/25 07:24:14;;;;;;;0.00;0.00;;;;;;;15.83;58.55;99201.56;5284715;26;33868;-81
2023/03/25 07:26:44;;;;;;;0.32;0.30;;;;;;;15.73;58.83;99197.91;5302966;26;34101;-81
2023/03/25 07:29:13;;;;;;;0.00;0.00;;;;;;;15.80;57.89;99208.94;5302421;26;32176;-80
2023/03/25 07:31:41;;;;;;;0.03;0.03;;;;;;;15.88;57.29;99210.06;5302372;26;33831;-80
2023/03/25 07:34:23;;;;;;;0.22;0.22;;;;;;;15.51;58.06;99219.03;5304558;26;33438;-81
2023/03/25 07:36:57;;;;;;;0.20;0.20;;;;;;;15.58;57.65;99204.34;5322251;26;34733;-81
2023/03/25 07:39:25;;;;;;;0.32;0.32;;;;;;;15.70;57.53;99202.59;5301088;26;32818;-80
2023/03/25 07:41:55;;;;;;;0.03;0.03;;;;;;;16.16;55.67;99196.47;5338368;26;33875;-81
2023/03/25 07:44:28;;;;;;;0.00;0.00;;;;;;;16.02;56.00;99192.19;5320877;26;33428;-81
2023/03/25 07:47:05;;;;;;;0.40;0.30;;;;;;;15.99;56.13;99198.59;5303870;26;33052;-82
2023/03/25 07:49:39;;;;;;;0.05;0.05;;;;;;;16.03;55.97;99194.72;5303831;26;31745;-82
2023/03/25 07:55:00;;;;;;;0.00;0.00;;;;;;;16.38;55.06;99194.72;5320985;26;34149;-80
2023/03/25 07:57:36;;;;;;;0.52;0.35;;;;;;;16.70;54.17;99182.50;5327541;26;33697;-80
2023/03/25 08:00:07;;;;;;;0.28;0.28;;;;;;;17.20;52.96;99191.84;5286350;26;33353;-80
2023/03/25 08:02:45;;;;;;;0.00;0.00;;;;;;;16.98;54.48;99187.38;5287253;26;32560;-81
2023/03/25 08:05:20;;;;;;;0.10;0.10;;;;;;;17.11;51.88;99204.09;5320419;26;33364;-82
2023/03/25 08:08:01;;;;;;;0.03;0.03;;;;;;;16.72;53.98;99196.59;5303396;26;33658;-80
2023/03/25 08:13:18;;;;;;;0.17;0.17;;;;;;;16.55;52.24;99200.53;5323895;26;34538;-81
2023/03/25 08:15:48;;;;;;;0.30;0.20;;;;;;;16.77;52.39;99199.75;5303665;26;33180;-80
2023/03/25 08:18:24;;;;;;;0.00;0.00;;;;;;;16.72;53.46;99201.94;5303740;26;32965;-80
2023/03/25 08:20:52;;;;;;;0.88;0.20;;;;;;;17.17;51.77;99202.75;5321400;26;32327;-80
2023/03/25 08:23:25;;;;;;;0.00;0.00;;;;;;;17.47;49.83;99194.09;5303036;26;32241;-81
2023/03/25 08:28:40;;;;;;;1.00;0.45;;;;;;;17.91;49.91;99194.94;5322250;26;34209;-80
2023/03/25 08:31:15;;;;;;;0.10;0.10;;;;;;;17.84;49.54;99177.72;5321912;26;33579;-80
2023/03/25 08:33:48;;;;;;;1.95;0.37;;;;;;;18.35;47.70;99176.97;5321668;26;34125;-80
2023/03/25 08:36:18;;;;;;;1.55;1.25;;;;;;;18.17;48.31;99176.69;5302265;26;34317;-80
2023/03/25 08:38:47;;;;;;;0.00;0.00;;;;;;;18.10;48.89;99181.72;5302245;26;32849;-80
2023/03/25 08:41:32;;;;;;;0.00;0.00;;;;;;;18.43;45.67;99166.47;5302955;26;32997;-80
2023/03/25 08:44:21;;;;;;;0.00;0.00;;;;;;;18.56;46.36;99164.44;5305267;26;33402;-80
2023/03/25 08:46:51;;;;;;;0.03;0.03;;;;;;;17.73;48.13;99167.94;5321372;26;34505;-80
2023/03/25 08:49:20;;;;;;;0.00;0.00;;;;;;;18.32;44.62;99169.19;5321053;26;34096;-80
2023/03/25 08:52:00;;;;;;;0.17;0.17;;;;;;;18.21;45.94;99171.94;5322373;26;33935;-80
2023/03/25 08:54:32;;;;;;;0.13;0.13;;;;;;;17.78;47.42;99175.56;5320476;26;32760;-80
2023/03/25 08:57:01;;;;;;;1.67;0.95;;;;;;;17.99;48.88;99179.09;5320090;26;33874;-80
2023/03/25 08:59:36;;;;;;;1.55;0.95;;;;;;;18.28;45.61;99165.97;5303989;26;32831;-80
2023/03/25 09:02:13;;;;;;;0.15;0.10;;;;;;;18.27;45.87;99174.09;5319742;26;32296;-80
2023/03/25 09:04:44;;;;;;;0.55;0.50;;;;;;;18.30;46.50;99168.50;5321137;26;34782;-80
2023/03/25 09:07:14;;;;;;;0.00;0.00;;;;;;;18.48;46.21;99166.91;5319455;26;34931;-81
2023/03/25 09:09:45;;;;;;;0.17;0.17;;;;;;;18.61;46.56;99169.34;5319046;26;33122;-80
2023/03/25 09:12:21;;;;;;;0.03;0.03;;;;;;;19.19;44.73;99174.97;5297719;26;32366;-80
2023/03/25 09:14:57;;;;;;;0.93;0.57;;;;;;;18.43;44.65;99177.16;5320382;26;32979;-80
2023/03/25 09:17:26;;;;;;;0.22;0.22;;;;;;;18.38;45.48;99174.88;5301134;26;32651;-79
2023/03/25 09:20:12;;;;;;;0.20;0.20;;;;;;;18.46;45.32;99182.22;5320535;26;34277;-80
2023/03/25 09:22:41;;;;;;;0.10;0.10;;;;;;;18.46;43.81;99187.56;5303163;26;33257;-82
2023/03/25 09:25:22;;;;;;;0.22;0.22;;;;;;;18.72;44.36;99181.84;5320237;26;33396;-80
2023/03/25 09:27:54;;;;;;;0.20;0.20;;;;;;;19.25;42.51;99174.41;5302769;26;33141;-80
2023/03/25 09:30:25;;;;;;;0.10;0.10;;;;;;;19.50;41.34;99177.56;5320650;26;34484;-80
2023/03/25 09:33:03;;;;;;;0.00;0.00;;;;;;;19.39;42.52;99175.84;5321263;26;34019;-80
2023/03/25 09:35:35;;;;;;;0.00;0.00;;;;;;;19.55;41.71;99176.16;5321215;26;34030;-80
2023/03/25 09:38:10;;;;;;;8.13;1.80;;;;;;;19.46;41.18;99176.97;5303244;26;33188;-80
2023/03/25 09:40:51;;;;;;;0.15;0.15;;;;;;;19.85;39.97;99177.06;5287681;26;34272;-79
2023/03/25 09:43:30;;;;;;;1.65;0.85;;;;;;;20.16;38.84;99172.38;5303300;26;33723;-80
2023/03/25 09:46:05;;;;;;;0.00;0.00;;;;;;;20.34;38.00;99169.81;5303579;26;33481;-80
2023/03/25 09:48:37;;;;;;;0.43;0.43;;;;;;;20.09;39.00;99173.94;5322249;26;33872;-81
2023/03/25 09:51:22;;;;;;;0.03;0.03;;;;;;;20.10;40.20;99165.75;5287498;26;33410;-80
2023/03/25 10:02:48;;;;;;;0.00;0.00;;;;;;;19.72;41.08;99181.84;5323468;26;32861;-80
2023/03/25 10:05:30;;;;;;;2.35;1.25;;;;;;;19.47;40.63;99178.69;5292204;26;35169;-81
2023/03/25 10:08:04;;;;;;;16.45;0.45;;;;;;;19.90;39.75;99182.84;5305441;26;32799;-80
2023/03/25 10:11:01;;;;;;;0.10;0.03;;;;;;;19.23;40.57;99189.78;5324059;26;33571;-81
2023/03/25 10:13:40;;;;;;;0.10;0.10;;;;;;;19.55;40.63;99186.03;5305733;26;32643;-80
2023/03/25 10:16:35;;;;;;;1.35;0.80;;;;;;;19.25;41.11;99184.28;5306636;26;33513;-80
2023/03/25 10:19:30;;;;;;;0.17;0.17;;;;;;;19.17;42.13;99193.81;5304974;26;33415;-81
2023/03/25 10:22:04;;;;;;;0.55;0.55;;;;;;;19.52;40.85;99184.47;5305793;26;32738;-80
2023/03/25 10:24:53;;;;;;;0.55;0.50;;;;;;;19.49;41.25;99176.72;5325223;26;33691;-81
2023/03/25 10:27:37;;;;;;;0.10;0.10;;;;;;;19.97;40.59;99170.56;5306648;26;32115;-81
2023/03/25 10:30:26;;;;;;;0.00;0.00;;;;;;;20.03;40.30;99164.63;5288109;26;32150;-80
2023/03/25 10:32:58;;;;;;;0.10;0.10;;;;;;;19.74;40.15;99177.19;5323705;26;33234;-80
2023/03/25 10:35:35;;;;;;;1.30;0.77;;;;;;;19.81;40.39;99181.00;5305688;26;33961;-81
2023/03/25 10:40:49;;;;;;;0.22;0.22;;;;;;;20.16;38.80;99175.06;5325032;26;33758;-81
2023/03/25 10:43:30;;;;;;;0.00;0.00;;;;;;;20.78;36.57;99162.06;5305742;26;33264;-81
2023/03/25 10:46:05;;;;;;;0.00;0.00;;;;;;;20.73;37.26;99162.53;5343567;26;33687;-81
2023/03/25 10:48:42;;;;;;;0.00;0.00;;;;;;;20.59;35.51;99169.19;5325170;26;34177;-81
2023/03/25 10:51:19;;;;;;;0.30;0.30;;;;;;;20.97;34.88;99170.87;5305553;26;33812;-80
2023/03/25 10:53:51;;;;;;;1.37;1.25;;;;;;;21.09;35.09;99179.59;5304927;26;33017;-80
2023/03/25 10:56:31;;;;;;;0.17;0.13;;;;;;;20.83;35.81;99178.56;5305393;26;33200;-80
2023/03/25 10:59:18;;;;;;;1.05;0.52;;;;;;;20.80;36.34;99174.38;5324861;26;33297;-80
2023/03/25 11:01:58;;;;;;;0.22;0.22;;;;;;;20.60;35.92;99178.94;5306183;26;33697;-80
2023/03/25 11:04:35;;;;;;;0.17;0.17;;;;;;;20.11;37.83;99183.53;5304482;26;34357;-80
2023/03/25 11:07:15;;;;;;;0.20;0.20;;;;;;;20.07;36.83;99176.75;5323794;26;34165;-80
2023/03/25 11:09:45;;;;;;;0.10;0.10;;;;;;;19.57;37.22;99184.06;5324116;26;33130;-80
2023/03/25 11:12:25;;;;;;;0.00;0.00;;;;;;;20.02;36.40;99173.66;5304674;26;33287;-80
2023/03/25 11:15:36;;;;;;;0.00;0.00;;;;;;;19.47;36.75;99184.06;5306743;26;33382;-79
2023/03/25 11:18:33;;;;;;;0.13;0.13;;;;;;;19.69;36.77;99189.16;5317910;27;35532;-80
2023/03/25 11:21:11;;;;;;;0.00;0.00;;;;;;;19.65;36.39;99182.41;5297103;26;32415;-81
2023/03/25 11:23:52;;;;;;;0.03;0.00;;;;;;;19.39;36.75;99190.09;5321496;26;33524;-79
2023/03/25 11:26:29;;;;;;;8.07;0.37;;;;;;;19.21;36.06;99198.91;5303863;26;33086;-80
2023/03/25 11:29:01;;;;;;;0.08;0.08;;;;;;;19.10;36.33;99203.41;5304000;26;33094;-80
2023/03/25 11:31:35;;;;;;;0.40;0.40;;;;;;;18.64;37.26;99212.72;5323400;26;34099;-80
2023/03/25 11:34:16;;;;;;;0.00;0.00;;;;;;;18.86;36.82;99203.72;5324636;26;33658;-80
2023/03/25 11:37:08;;;;;;;0.37;0.37;;;;;;;18.85;36.55;99203.88;5295548;26;33594;-79
2023/03/25 11:39:48;;;;;;;0.00;0.00;;;;;;;19.21;35.79;99198.91;5305716;26;34759;-80
2023/03/25 11:45:34;;;;;;;10.93;0.32;;;;;;;18.49;36.68;99206.03;5304149;26;32994;-80
2023/03/25 11:48:14;;;;;;;0.10;0.10;;;;;;;18.48;37.33;99201.66;5305647;26;32714;-80
2023/03/25 11:50:56;;;;;;;0.00;0.00;;;;;;;18.73;37.17;99200.41;5323748;26;33607;-80
2023/03/25 11:53:30;;;;;;;0.00;0.00;;;;;;;18.93;36.82;99204.88;5323373;26;33061;-81
2023/03/25 11:56:06;;;;;;;0.00;0.00;;;;;;;18.71;37.43;99202.41;5287047;26;32356;-80
2023/03/25 11:58:37;;;;;;;1.45;0.73;;;;;;;18.76;37.17;99185.94;5286951;26;34323;-80
2023/03/25 12:01:20;;;;;;;0.10;0.10;;;;;;;18.43;37.74;99199.38;5305243;26;33578;-80
2023/03/25 12:04:15;;;;;;;0.20;0.20;;;;;;;18.06;38.37;99200.81;5305898;26;31852;-80
2023/03/25 12:07:09;;;;;;;0.10;0.10;;;;;;;18.02;38.28;99199.38;5304173;26;33604;-81
2023/03/25 12:09:54;;;;;;;0.10;0.10;;;;;;;18.16;37.92;99196.38;5306185;26;32984;-81
2023/03/25 12:12:40;;;;;;;0.20;0.20;;;;;;;17.82;39.19;99190.38;5319881;26;33472;-80
2023/03/25 12:15:44;;;;;;;0.43;0.37;;;;;;;18.14;38.65;99177.81;5305247;26;32906;-81
2023/03/25 12:19:09;;;;;;;0.00;0.00;;;;;;;17.93;37.98;99176.94;5306337;26;34563;-80
2023/03/25 12:22:00;;;;;;;0.00;0.00;;;;;;;17.99;38.54;99178.25;5285771;26;32702;-80
2023/03/25 12:25:06;;;;;;;0.00;0.00;;;;;;;18.29;37.70;99172.16;5305603;26;33858;-80
2023/03/25 12:27:51;;;;;;;0.10;0.10;;;;;;;18.24;37.48;99161.84;5324776;26;33159;-80
2023/03/25 12:30:53;;;;;;;0.00;0.00;;;;;;;18.22;37.66;99157.59;5323481;26;33933;-80
2023/03/25 12:33:31;;;;;;;0.10;0.10;;;;;;;18.27;38.26;99161.56;5304806;26;34149;-81
2023/03/25 12:36:05;;;;;;;0.25;0.25;;;;;;;18.23;37.49;99151.28;5342599;26;34265;-80
2023/03/25 12:39:16;;;;;;;0.00;0.00;;;;;;;18.38;36.52;99148.16;5304938;26;32500;-80
2023/03/25 12:42:20;;;;;;;0.00;0.00;;;;;;;18.53;36.15;99140.63;5306540;26;33830;-81
2023/03/25 12:51:07;;;;;;;0.00;0.00;;;;;;;18.88;35.62;99134.03;5342344;26;33049;-80
2023/03/25 12:53:40;;;;;;;0.08;0.08;;;;;;;18.70;36.22;99135.66;5300388;26;33664;-80